Time;durP1;ratioP1;P1;durP2;ratioP2;P2;SDS_P1;SDS_P2;PMS_P1;PMS_P2;Temp;Humidity;BMP_temperature;BMP_pressure;BME280_temperature;BME280_humidity;BME280_pressure;Samples;Min_cycle;Max_cycle;Signal;HPM_P1;HPM_P2
2022/09/05 00:01:10;;;;;;;0.00;0.00;;;;;;;;;;6251465;22;20106;-90
2022/09/05 00:03:51;;;;;;;0.10;0.10;;;;;;;;;;6227428;22;20483;-90
2022/09/05 00:06:17;;;;;;;0.05;0.05;;;;;;;;;;6227090;22;20118;-91
2022/09/05 00:09:02;;;;;;;0.10;0.10;;;;;;;;;;6252279;22;20024;-91
2022/09/05 00:11:35;;;;;;;0.10;0.10;;;;;;;;;;6226434;22;20445;-91
2022/09/05 00:14:07;;;;;;;0.10;0.10;;;;;;;;;;6226163;22;20019;-91
2022/09/05 00:16:40;;;;;;;0.10;0.10;;;;;;;;;;6227093;22;20019;-92
2022/09/05 00:19:14;;;;;;;0.10;0.10;;;;;;;;;;6226737;22;20035;-91
2022/09/05 00:21:56;;;;;;;0.10;0.10;;;;;;;;;;6226806;22;20061;-92
2022/09/05 00:24:25;;;;;;;0.03;0.03;;;;;;;;;;6226878;22;20045;-92
2022/09/05 00:26:58;;;;;;;0.10;0.10;;;;;;;;;;6226228;22;20047;-91
2022/09/05 00:29:44;;;;;;;0.10;0.10;;;;;;;;;;6226283;22;20075;-91
2022/09/05 00:32:22;;;;;;;0.10;0.10;;;;;;;;;;6226370;22;20023;-91
2022/09/05 00:35:04;;;;;;;0.00;0.00;;;;;;;;;;6225998;22;20061;-90
2022/09/05 00:37:39;;;;;;;0.00;0.00;;;;;;;;;;6226317;22;20020;-91
2022/09/05 00:40:24;;;;;;;0.10;0.10;;;;;;;;;;6225617;22;20015;-91
2022/09/05 00:43:13;;;;;;;0.10;0.10;;;;;;;;;;6226438;22;20028;-92
2022/09/05 00:45:48;;;;;;;0.10;0.10;;;;;;;;;;6222294;22;20019;-91
2022/09/05 00:48:15;;;;;;;;;;;;;;;;;;6226455;22;20022;-91
2022/09/05 00:50:50;;;;;;;0.10;0.10;;;;;;;;;;6250919;22;19958;-91
2022/09/05 00:53:28;;;;;;;0.00;0.00;;;;;;;;;;6226713;22;20012;-92
2022/09/05 00:56:03;;;;;;;0.05;0.05;;;;;;;;;;6226825;22;20047;-91
2022/09/05 00:58:41;;;;;;;0.00;0.00;;;;;;;;;;6226576;22;20019;-91
2022/09/05 01:01:24;;;;;;;0.10;0.10;;;;;;;;;;6225494;22;20016;-91
2022/09/05 01:04:05;;;;;;;0.00;0.00;;;;;;;;;;6226613;22;20019;-91
2022/09/05 01:06:43;;;;;;;0.10;0.10;;;;;;;;;;6225695;22;20448;-91
2022/09/05 01:09:22;;;;;;;0.00;0.00;;;;;;;;;;6225569;22;20047;-91
2022/09/05 01:11:52;;;;;;;0.10;0.10;;;;;;;;;;6226074;22;20012;-91
2022/09/05 01:14:25;;;;;;;0.10;0.10;;;;;;;;;;6226096;22;20019;-91
2022/09/05 01:17:10;;;;;;;0.10;0.10;;;;;;;;;;6225920;22;20019;-91
2022/09/05 01:19:54;;;;;;;0.10;0.10;;;;;;;;;;6225064;22;20460;-91
2022/09/05 01:22:39;;;;;;;0.10;0.10;;;;;;;;;;6225710;22;20528;-91
2022/09/05 01:25:17;;;;;;;0.10;0.10;;;;;;;;;;6226258;22;20019;-90
2022/09/05 01:27:46;;;;;;;0.10;0.10;;;;;;;;;;6225590;22;20445;-91
2022/09/05 01:30:14;;;;;;;0.10;0.10;;;;;;;;;;6225242;22;20011;-91
2022/09/05 01:32:40;;;;;;;0.00;0.00;;;;;;;;;;6225452;22;20345;-91
2022/09/05 01:35:25;;;;;;;0.10;0.10;;;;;;;;;;6225564;22;20020;-91
2022/09/05 01:38:04;;;;;;;0.00;0.00;;;;;;;;;;6225378;22;20015;-91
2022/09/05 01:40:41;;;;;;;0.10;0.10;;;;;;;;;;6225031;22;20109;-91
2022/09/05 01:43:19;;;;;;;0.10;0.10;;;;;;;;;;6251221;22;20020;-91
2022/09/05 01:45:47;;;;;;;0.10;0.10;;;;;;;;;;6225870;22;20095;-90
2022/09/05 01:48:19;;;;;;;0.03;0.03;;;;;;;;;;6225297;22;20099;-91
2022/09/05 01:50:45;;;;;;;0.10;0.10;;;;;;;;;;6225153;22;20411;-91
2022/09/05 01:53:24;;;;;;;0.10;0.10;;;;;;;;;;6250557;22;20015;-91
2022/09/05 01:56:11;;;;;;;0.10;0.10;;;;;;;;;;6225737;22;20023;-91
2022/09/05 01:58:49;;;;;;;0.05;0.05;;;;;;;;;;6250304;22;20027;-90
2022/09/05 02:01:21;;;;;;;0.10;0.10;;;;;;;;;;6225434;22;20020;-91
2022/09/05 02:03:56;;;;;;;0.00;0.00;;;;;;;;;;6225540;22;20020;-92
2022/09/05 02:06:34;;;;;;;0.10;0.10;;;;;;;;;;6225246;22;20015;-89
2022/09/05 02:09:00;;;;;;;0.10;0.10;;;;;;;;;;6224997;22;20341;-91
2022/09/05 02:11:45;;;;;;;0.10;0.10;;;;;;;;;;6225402;22;20020;-91
2022/09/05 02:14:21;;;;;;;0.00;0.00;;;;;;;;;;6225736;22;20022;-91
2022/09/05 02:16:48;;;;;;;0.10;0.10;;;;;;;;;;6226247;22;20080;-91
2022/09/05 02:19:25;;;;;;;0.00;0.00;;;;;;;;;;6251861;22;20069;-90
2022/09/05 02:21:51;;;;;;;0.00;0.00;;;;;;;;;;6226438;22;20015;-91
2022/09/05 02:24:21;;;;;;;0.00;0.00;;;;;;;;;;6225898;22;20015;-90
2022/09/05 02:26:53;;;;;;;0.05;0.05;;;;;;;;;;6250331;22;20094;-91
2022/09/05 02:29:37;;;;;;;0.10;0.10;;;;;;;;;;6224611;22;20417;-90
2022/09/05 02:32:13;;;;;;;0.00;0.00;;;;;;;;;;6250522;22;20011;-90
2022/09/05 02:34:42;;;;;;;0.10;0.10;;;;;;;;;;6250386;22;20349;-90
2022/09/05 02:37:14;;;;;;;0.05;0.05;;;;;;;;;;6250237;22;20071;-91
2022/09/05 02:39:50;;;;;;;0.10;0.10;;;;;;;;;;6224284;22;20015;-91
2022/09/05 02:42:27;;;;;;;0.10;0.10;;;;;;;;;;6225151;22;20023;-90
2022/09/05 02:45:11;;;;;;;0.10;0.10;;;;;;;;;;6224710;22;20158;-91
2022/09/05 02:47:37;;;;;;;0.10;0.10;;;;;;;;;;6224568;22;20020;-91
2022/09/05 02:50:22;;;;;;;0.00;0.00;;;;;;;;;;6224478;22;20390;-90
2022/09/05 02:52:48;;;;;;;0.00;0.00;;;;;;;;;;6225049;22;20018;-90
2022/09/05 02:55:30;;;;;;;0.10;0.10;;;;;;;;;;6224735;22;20016;-90
2022/09/05 02:58:10;;;;;;;0.10;0.10;;;;;;;;;;6224943;22;20023;-90
2022/09/05 03:00:39;;;;;;;0.03;0.03;;;;;;;;;;6249960;22;20024;-91
2022/09/05 03:03:15;;;;;;;0.10;0.10;;;;;;;;;;6225161;22;20030;-90
2022/09/05 03:06:00;;;;;;;0.13;0.13;;;;;;;;;;6224866;22;20015;-91
2022/09/05 03:08:26;;;;;;;0.10;0.10;;;;;;;;;;6249989;22;20024;-91
2022/09/05 03:10:59;;;;;;;0.15;0.15;;;;;;;;;;6224246;22;20102;-91
2022/09/05 03:13:44;;;;;;;0.10;0.10;;;;;;;;;;6224737;22;20051;-91
2022/09/05 03:16:10;;;;;;;0.10;0.10;;;;;;;;;;6224503;22;20094;-90
2022/09/05 03:19:01;;;;;;;0.10;0.10;;;;;;;;;;6224921;22;20062;-91
2022/09/05 03:21:46;;;;;;;0.10;0.10;;;;;;;;;;6224742;22;20098;-91
2022/09/05 03:24:12;;;;;;;;;;;;;;;;;;6225172;22;20016;-90
2022/09/05 03:26:44;;;;;;;0.10;0.10;;;;;;;;;;6224235;22;19934;-91
2022/09/05 03:29:29;;;;;;;0.10;0.10;;;;;;;;;;6249342;22;20008;-90
2022/09/05 03:32:07;;;;;;;0.10;0.10;;;;;;;;;;6224608;22;20051;-90
2022/09/05 03:34:43;;;;;;;0.08;0.08;;;;;;;;;;6224747;22;20043;-91
2022/09/05 03:37:21;;;;;;;0.10;0.10;;;;;;;;;;6224664;22;20023;-90
2022/09/05 03:39:53;;;;;;;0.05;0.05;;;;;;;;;;6223994;22;20015;-90
2022/09/05 03:42:25;;;;;;;0.10;0.10;;;;;;;;;;6224671;22;20083;-91
2022/09/05 03:45:06;;;;;;;0.10;0.10;;;;;;;;;;6250487;22;20019;-90
2022/09/05 03:47:42;;;;;;;0.10;0.10;;;;;;;;;;6225364;22;20015;-91
2022/09/05 03:50:17;;;;;;;0.10;0.10;;;;;;;;;;6224392;22;20050;-88
2022/09/05 03:52:56;;;;;;;0.00;0.00;;;;;;;;;;6249414;22;20019;-90
2022/09/05 03:55:28;;;;;;;0.05;0.05;;;;;;;;;;6224598;22;20043;-90
2022/09/05 03:58:07;;;;;;;0.10;0.10;;;;;;;;;;6224660;22;20043;-90
2022/09/05 04:00:35;;;;;;;0.10;0.10;;;;;;;;;;6224051;22;20015;-91
2022/09/05 04:03:01;;;;;;;0.00;0.00;;;;;;;;;;6222163;22;20015;-91
2022/09/05 04:05:37;;;;;;;0.00;0.00;;;;;;;;;;6223334;22;20043;-88
2022/09/05 04:08:13;;;;;;;0.17;0.17;;;;;;;;;;6223773;22;20016;-91
2022/09/05 04:10:54;;;;;;;0.10;0.10;;;;;;;;;;6224379;22;20565;-91
2022/09/05 04:13:24;;;;;;;0.10;0.10;;;;;;;;;;6225730;22;20030;-91
2022/09/05 04:15:59;;;;;;;0.03;0.03;;;;;;;;;;6225491;22;20069;-91
2022/09/05 04:18:33;;;;;;;0.10;0.10;;;;;;;;;;6225689;22;20015;-90
2022/09/05 04:21:18;;;;;;;0.10;0.10;;;;;;;;;;6225253;22;20425;-90
2022/09/05 04:23:52;;;;;;;0.20;0.20;;;;;;;;;;6225385;22;20069;-90
2022/09/05 04:26:37;;;;;;;0.00;0.00;;;;;;;;;;6225338;22;20054;-90
2022/09/05 04:29:15;;;;;;;0.00;0.00;;;;;;;;;;6225419;22;20062;-90
2022/09/05 04:31:57;;;;;;;0.10;0.10;;;;;;;;;;6225091;22;20023;-89
2022/09/05 04:34:41;;;;;;;0.10;0.10;;;;;;;;;;6225398;22;20020;-90
2022/09/05 04:37:08;;;;;;;0.10;0.10;;;;;;;;;;6225413;22;20018;-90
2022/09/05 04:39:35;;;;;;;0.00;0.00;;;;;;;;;;6224840;22;20018;-91
2022/09/05 04:42:04;;;;;;;0.00;0.00;;;;;;;;;;6225513;22;20047;-90
2022/09/05 04:44:40;;;;;;;0.15;0.15;;;;;;;;;;6225446;22;20050;-90
2022/09/05 04:47:11;;;;;;;0.00;0.00;;;;;;;;;;6225033;22;20030;-90
2022/09/05 04:49:40;;;;;;;0.10;0.10;;;;;;;;;;6224973;22;20071;-90
2022/09/05 04:52:17;;;;;;;0.00;0.00;;;;;;;;;;6225530;22;20082;-89
2022/09/05 04:54:52;;;;;;;0.10;0.10;;;;;;;;;;6250479;22;20012;-89
2022/09/05 04:57:37;;;;;;;0.03;0.03;;;;;;;;;;6250661;22;20019;-89
2022/09/05 05:00:06;;;;;;;0.10;0.10;;;;;;;;;;6224172;22;20026;-90
2022/09/05 05:02:46;;;;;;;0.10;0.10;;;;;;;;;;6225393;22;20038;-90
2022/09/05 05:05:20;;;;;;;0.20;0.20;;;;;;;;;;6225918;22;20407;-90
2022/09/05 05:07:50;;;;;;;0.10;0.10;;;;;;;;;;6224842;22;20055;-90
2022/09/05 05:10:21;;;;;;;0.10;0.10;;;;;;;;;;6224555;22;20106;-90
2022/09/05 05:12:53;;;;;;;0.10;0.10;;;;;;;;;;6225351;22;20440;-90
2022/09/05 05:15:21;;;;;;;0.10;0.10;;;;;;;;;;6225471;22;20114;-89
2022/09/05 05:18:03;;;;;;;0.10;0.10;;;;;;;;;;6224895;22;20020;-90
2022/09/05 05:20:29;;;;;;;0.10;0.10;;;;;;;;;;6224466;22;20020;-90
2022/09/05 05:22:55;;;;;;;0.00;0.00;;;;;;;;;;6225101;22;20015;-90
2022/09/05 05:25:22;;;;;;;0.00;0.00;;;;;;;;;;6225576;22;20352;-90
2022/09/05 05:28:03;;;;;;;0.10;0.10;;;;;;;;;;6225349;22;20016;-91
2022/09/05 05:30:31;;;;;;;0.10;0.10;;;;;;;;;;6224403;22;20016;-91
2022/09/05 05:32:59;;;;;;;0.10;0.10;;;;;;;;;;6225244;22;20023;-91
2022/09/05 05:35:30;;;;;;;0.00;0.00;;;;;;;;;;6250147;22;20012;-90
2022/09/05 05:38:09;;;;;;;0.03;0.03;;;;;;;;;;6224879;22;20020;-90
2022/09/05 05:40:38;;;;;;;0.10;0.10;;;;;;;;;;6224011;22;20094;-90
2022/09/05 05:43:14;;;;;;;0.20;0.20;;;;;;;;;;6224837;22;20056;-90
2022/09/05 05:45:40;;;;;;;0.00;0.00;;;;;;;;;;6224680;22;20015;-90
2022/09/05 05:48:26;;;;;;;0.00;0.00;;;;;;;;;;6224642;22;20107;-96
2022/09/05 05:50:56;;;;;;;0.10;0.10;;;;;;;;;;6224149;22;20468;-91
2022/09/05 05:53:29;;;;;;;0.10;0.10;;;;;;;;;;6249830;22;20086;-89
2022/09/05 05:56:14;;;;;;;0.10;0.10;;;;;;;;;;6225028;22;20042;-90
2022/09/05 05:58:59;;;;;;;0.10;0.10;;;;;;;;;;6224400;22;20441;-91
2022/09/05 06:01:43;;;;;;;0.00;0.00;;;;;;;;;;6224444;22;20026;-90
2022/09/05 06:04:28;;;;;;;0.10;0.10;;;;;;;;;;6250010;22;20015;-90
2022/09/05 06:06:54;;;;;;;0.00;0.00;;;;;;;;;;6224382;22;20016;-90
2022/09/05 06:09:29;;;;;;;0.10;0.10;;;;;;;;;;6249205;22;20019;-89
2022/09/05 06:12:15;;;;;;;0.10;0.10;;;;;;;;;;6249520;22;20011;-90
2022/09/05 06:15:02;;;;;;;0.20;0.20;;;;;;;;;;6224225;22;20384;-90
2022/09/05 06:17:44;;;;;;;0.00;0.00;;;;;;;;;;6224519;22;20016;-90
2022/09/05 06:20:29;;;;;;;0.10;0.10;;;;;;;;;;6224015;22;20436;-91
2022/09/05 06:23:01;;;;;;;0.00;0.00;;;;;;;;;;6224361;22;20020;-91
2022/09/05 06:25:35;;;;;;;0.05;0.05;;;;;;;;;;6224297;22;20016;-90
2022/09/05 06:28:15;;;;;;;0.10;0.10;;;;;;;;;;6224043;22;20016;-90
2022/09/05 06:31:07;;;;;;;0.10;0.10;;;;;;;;;;6223685;22;20023;-91
2022/09/05 06:33:37;;;;;;;0.20;0.20;;;;;;;;;;6212439;22;20444;-91
2022/09/05 06:36:06;;;;;;;0.10;0.10;;;;;;;;;;6223860;22;20016;-90
2022/09/05 06:38:32;;;;;;;0.00;0.00;;;;;;;;;;6249473;22;20098;-90
2022/09/05 06:41:12;;;;;;;0.10;0.10;;;;;;;;;;6248913;22;20070;-90
2022/09/05 06:43:57;;;;;;;0.10;0.10;;;;;;;;;;6249142;22;20376;-89
2022/09/05 06:46:36;;;;;;;0.15;0.15;;;;;;;;;;6223961;22;20471;-90
2022/09/05 06:49:16;;;;;;;0.10;0.10;;;;;;;;;;6223721;22;20425;-90
2022/09/05 06:51:45;;;;;;;0.10;0.10;;;;;;;;;;6224205;22;20095;-90
2022/09/05 06:54:30;;;;;;;0.10;0.10;;;;;;;;;;6224016;22;20023;-91
2022/09/05 06:57:05;;;;;;;0.10;0.10;;;;;;;;;;6223862;22;20444;-90
2022/09/05 06:59:50;;;;;;;0.00;0.00;;;;;;;;;;6223270;22;20424;-90
2022/09/05 07:02:22;;;;;;;0.03;0.03;;;;;;;;;;6223993;22;20069;-90
2022/09/05 07:05:08;;;;;;;0.10;0.10;;;;;;;;;;6224401;22;20019;-94
2022/09/05 07:07:38;;;;;;;0.10;0.10;;;;;;;;;;6223471;22;20012;-90
2022/09/05 07:10:16;;;;;;;0.10;0.10;;;;;;;;;;6223906;22;20484;-89
2022/09/05 07:12:54;;;;;;;0.08;0.08;;;;;;;;;;6225564;22;20015;-89
2022/09/05 07:15:32;;;;;;;0.00;0.00;;;;;;;;;;6223000;22;20459;-88
2022/09/05 07:18:11;;;;;;;0.10;0.10;;;;;;;;;;6222950;22;20015;-87
2022/09/05 07:20:47;;;;;;;0.10;0.10;;;;;;;;;;6222104;22;20019;-88
2022/09/05 07:23:18;;;;;;;0.00;0.00;;;;;;;;;;6259631;22;20023;-92
2022/09/05 07:25:47;;;;;;;0.10;0.10;;;;;;;;;;6224052;22;20058;-89
2022/09/05 07:28:14;;;;;;;0.03;0.03;;;;;;;;;;6223647;22;20062;-92
2022/09/05 07:30:46;;;;;;;0.10;0.10;;;;;;;;;;6224013;22;20012;-91
2022/09/05 07:33:16;;;;;;;0.00;0.00;;;;;;;;;;6223504;22;20099;-87
2022/09/05 07:35:42;;;;;;;0.10;0.10;;;;;;;;;;6223062;22;20341;-92
2022/09/05 07:38:17;;;;;;;0.05;0.05;;;;;;;;;;6223568;22;20016;-91
2022/09/05 07:40:50;;;;;;;0.00;0.00;;;;;;;;;;6223517;22;20059;-90
2022/09/05 07:43:53;;;;;;;0.00;0.00;;;;;;;;;;6223948;22;20069;-92
2022/09/05 07:46:25;;;;;;;0.00;0.00;;;;;;;;;;6225952;22;20023;-87
2022/09/05 07:48:55;;;;;;;0.10;0.10;;;;;;;;;;6224432;22;20015;-90
2022/09/05 07:51:28;;;;;;;0.00;0.00;;;;;;;;;;6225665;22;20019;-90
2022/09/05 07:53:57;;;;;;;0.00;0.00;;;;;;;;;;6251314;22;20016;-92
2022/09/05 07:56:42;;;;;;;0.10;0.10;;;;;;;;;;6224501;22;20304;-86
2022/09/05 07:59:08;;;;;;;;;;;;;;;;;;6223924;22;20019;-86
2022/09/05 08:01:37;;;;;;;0.03;0.03;;;;;;;;;;6224117;22;19937;-86
2022/09/05 08:04:03;;;;;;;0.10;0.10;;;;;;;;;;6249770;22;20050;-87
2022/09/05 08:06:29;;;;;;;0.10;0.10;;;;;;;;;;6224277;22;20015;-85
2022/09/05 08:09:06;;;;;;;0.10;0.10;;;;;;;;;;6223375;22;20020;-85
2022/09/05 08:11:33;;;;;;;0.10;0.10;;;;;;;;;;6224184;22;20051;-85
2022/09/05 08:14:05;;;;;;;0.05;0.05;;;;;;;;;;6249209;22;20393;-86
2022/09/05 08:16:33;;;;;;;0.10;0.10;;;;;;;;;;6249389;22;20015;-86
2022/09/05 08:19:18;;;;;;;0.10;0.10;;;;;;;;;;6223496;22;20094;-86
2022/09/05 08:21:47;;;;;;;0.00;0.00;;;;;;;;;;6223612;22;20030;-86
2022/09/05 08:24:24;;;;;;;0.00;0.00;;;;;;;;;;6223636;22;20015;-86
2022/09/05 08:26:57;;;;;;;0.20;0.20;;;;;;;;;;6223710;22;20015;-85
2022/09/05 08:29:24;;;;;;;0.10;0.10;;;;;;;;;;6223367;22;20618;-86
2022/09/05 08:32:13;;;;;;;0.00;0.00;;;;;;;;;;6224465;22;20091;-87
2022/09/05 08:34:46;;;;;;;0.08;0.08;;;;;;;;;;6209100;22;20035;-87
2022/09/05 08:37:14;;;;;;;0.10;0.10;;;;;;;;;;6248994;22;20411;-87
2022/09/05 08:39:41;;;;;;;0.10;0.10;;;;;;;;;;6223576;22;20027;-87
2022/09/05 08:42:07;;;;;;;0.10;0.10;;;;;;;;;;6249081;22;20023;-87
2022/09/05 08:44:40;;;;;;;0.08;0.08;;;;;;;;;;6224367;22;20026;-87
2022/09/05 08:47:19;;;;;;;0.10;0.10;;;;;;;;;;6223831;22;20023;-88
2022/09/05 08:50:11;;;;;;;0.10;0.10;;;;;;;;;;6223657;22;20520;-88
2022/09/05 08:52:49;;;;;;;0.00;0.00;;;;;;;;;;6222252;22;20012;-88
2022/09/05 08:55:17;;;;;;;0.05;0.05;;;;;;;;;;6223415;22;20003;-88
2022/09/05 08:57:58;;;;;;;0.03;0.03;;;;;;;;;;6224666;22;20020;-89
2022/09/05 09:00:25;;;;;;;0.00;0.00;;;;;;;;;;6224110;22;20340;-89
2022/09/05 09:03:06;;;;;;;0.00;0.00;;;;;;;;;;6223963;22;20022;-90
2022/09/05 09:05:44;;;;;;;0.00;0.00;;;;;;;;;;6224676;22;20051;-90
2022/09/05 09:08:14;;;;;;;0.10;0.10;;;;;;;;;;6224237;22;20504;-88
2022/09/05 09:10:58;;;;;;;0.00;0.00;;;;;;;;;;6224143;22;20100;-89
2022/09/05 09:13:36;;;;;;;0.17;0.17;;;;;;;;;;6222742;22;20065;-89
2022/09/05 09:16:09;;;;;;;0.00;0.00;;;;;;;;;;6224690;22;20016;-90
2022/09/05 09:18:38;;;;;;;0.05;0.05;;;;;;;;;;6250302;22;20019;-90
2022/09/05 09:21:17;;;;;;;0.10;0.10;;;;;;;;;;6223569;22;20047;-88
2022/09/05 09:23:52;;;;;;;0.00;0.00;;;;;;;;;;6249165;22;20027;-95
2022/09/05 09:26:20;;;;;;;0.00;0.00;;;;;;;;;;6224398;22;20026;-91
2022/09/05 09:29:01;;;;;;;0.10;0.10;;;;;;;;;;6224164;22;20487;-93
2022/09/05 09:31:36;;;;;;;0.00;0.00;;;;;;;;;;6224593;22;20403;-89
2022/09/05 09:34:13;;;;;;;0.00;0.00;;;;;;;;;;6224360;22;20345;-90
2022/09/05 09:36:39;;;;;;;0.00;0.00;;;;;;;;;;6223971;22;20012;-89
2022/09/05 09:39:14;;;;;;;0.15;0.15;;;;;;;;;;6223613;22;20027;-91
2022/09/05 09:41:59;;;;;;;0.05;0.05;;;;;;;;;;6226051;22;20439;-91
2022/09/05 09:44:40;;;;;;;0.10;0.10;;;;;;;;;;6223645;22;20012;-87
2022/09/05 09:47:12;;;;;;;0.00;0.00;;;;;;;;;;6223356;22;20020;-87
2022/09/05 09:49:57;;;;;;;0.00;0.00;;;;;;;;;;6223001;22;20016;-89
2022/09/05 09:55:00;;;;;;;0.10;0.10;;;;;;;;;;6249302;22;19947;-90
2022/09/05 09:57:45;;;;;;;0.00;0.00;;;;;;;;;;6225055;22;20020;-93
2022/09/05 10:00:22;;;;;;;0.05;0.05;;;;;;;;;;6223789;22;20016;-94
2022/09/05 10:02:51;;;;;;;0.00;0.00;;;;;;;;;;6224499;22;20019;-94
2022/09/05 10:05:20;;;;;;;0.10;0.10;;;;;;;;;;6224208;22;20015;-95
2022/09/05 10:08:11;;;;;;;0.00;0.00;;;;;;;;;;6226539;22;20031;-95
2022/09/05 10:10:43;;;;;;;0.10;0.10;;;;;;;;;;6224135;22;20082;-92
2022/09/05 10:13:15;;;;;;;0.10;0.10;;;;;;;;;;6223279;22;20016;-90
2022/09/05 10:16:13;;;;;;;0.00;0.00;;;;;;;;;;6249391;22;20011;-94
2022/09/05 10:18:45;;;;;;;0.10;0.10;;;;;;;;;;6207064;22;20022;-94
2022/09/05 10:21:31;;;;;;;0.00;0.00;;;;;;;;;;6224698;22;20008;-94
2022/09/05 10:24:06;;;;;;;0.05;0.05;;;;;;;;;;6250041;22;20049;-92
2022/09/05 10:26:56;;;;;;;0.00;0.00;;;;;;;;;;6224560;22;20067;-94
2022/09/05 10:29:41;;;;;;;0.00;0.00;;;;;;;;;;6223943;22;20020;-92
2022/09/05 10:32:07;;;;;;;;;;;;;;;;;;6249948;22;20016;-93
2022/09/05 10:34:45;;;;;;;0.10;0.10;;;;;;;;;;6224359;22;19911;-92
2022/09/05 10:37:12;;;;;;;0.00;0.00;;;;;;;;;;6224209;22;20016;-94
2022/09/05 10:39:44;;;;;;;0.00;0.00;;;;;;;;;;6249606;22;20015;-94
2022/09/05 10:42:12;;;;;;;0.10;0.10;;;;;;;;;;6224018;22;20069;-93
2022/09/05 10:44:42;;;;;;;0.00;0.00;;;;;;;;;;6224849;22;20026;-95
2022/09/05 10:47:27;;;;;;;0.10;0.10;;;;;;;;;;6249423;22;20020;-94
2022/09/05 10:50:16;;;;;;;0.03;0.03;;;;;;;;;;6223812;22;20345;-94
2022/09/05 10:52:58;;;;;;;0.00;0.00;;;;;;;;;;6219722;22;20491;-93
2022/09/05 10:55:28;;;;;;;0.00;0.00;;;;;;;;;;6224332;22;20022;-94
2022/09/05 10:58:12;;;;;;;0.13;0.13;;;;;;;;;;6224584;22;20350;-94
2022/09/05 11:00:38;;;;;;;;;;;;;;;;;;6224816;22;20326;-95
2022/09/05 11:03:06;;;;;;;0.03;0.03;;;;;;;;;;6223383;22;19933;-92
2022/09/05 11:05:38;;;;;;;0.00;0.00;;;;;;;;;;6224432;22;20019;-95
2022/09/05 11:08:10;;;;;;;0.00;0.00;;;;;;;;;;6249135;22;20150;-91
2022/09/05 11:10:39;;;;;;;0.03;0.03;;;;;;;;;;6224428;22;20011;-95
2022/09/05 11:13:07;;;;;;;0.00;0.00;;;;;;;;;;6223761;22;20016;-94
2022/09/05 11:15:33;;;;;;;0.05;0.05;;;;;;;;;;6224340;22;20018;-94
2022/09/05 11:17:59;;;;;;;0.00;0.00;;;;;;;;;;6224023;22;20115;-90
2022/09/05 11:20:44;;;;;;;0.10;0.10;;;;;;;;;;6223348;22;20043;-95
2022/09/05 11:23:09;;;;;;;;;;;;;;;;;;6224172;22;20016;-94
2022/09/05 11:25:38;;;;;;;0.00;0.00;;;;;;;;;;6224034;22;19969;-94
2022/09/05 11:28:16;;;;;;;0.00;0.00;;;;;;;;;;6223752;22;20062;-94
2022/09/05 11:30:44;;;;;;;0.00;0.00;;;;;;;;;;6223556;22;20437;-93
2022/09/05 11:33:14;;;;;;;0.10;0.10;;;;;;;;;;6224467;22;20348;-94
2022/09/05 11:35:40;;;;;;;0.03;0.03;;;;;;;;;;6224150;22;20015;-94
2022/09/05 11:38:09;;;;;;;0.00;0.00;;;;;;;;;;6224187;22;20008;-91
2022/09/05 11:40:54;;;;;;;0.00;0.00;;;;;;;;;;6223668;22;20016;-93
2022/09/05 11:43:33;;;;;;;0.00;0.00;;;;;;;;;;6223467;22;20026;-90
2022/09/05 11:46:12;;;;;;;0.00;0.00;;;;;;;;;;6223911;22;20061;-94
2022/09/05 11:48:41;;;;;;;0.00;0.00;;;;;;;;;;6224115;22;20026;-93
2022/09/05 11:51:10;;;;;;;0.00;0.00;;;;;;;;;;6224046;22;20403;-90
2022/09/05 11:53:57;;;;;;;0.10;0.10;;;;;;;;;;6223891;22;20098;-93
2022/09/05 11:56:31;;;;;;;0.00;0.00;;;;;;;;;;6249541;22;20503;-92
2022/09/05 11:59:22;;;;;;;0.00;0.00;;;;;;;;;;6246901;22;20085;-89
2022/09/05 12:02:09;;;;;;;0.10;0.10;;;;;;;;;;6223607;22;20016;-92
2022/09/05 12:04:56;;;;;;;0.10;0.10;;;;;;;;;;6224156;22;20073;-92
2022/09/05 12:07:25;;;;;;;0.00;0.00;;;;;;;;;;6223265;22;20016;-92
2022/09/05 12:09:51;;;;;;;0.00;0.00;;;;;;;;;;6223177;22;20015;-93
2022/09/05 12:12:25;;;;;;;0.00;0.00;;;;;;;;;;6223740;22;20023;-93
2022/09/05 12:15:04;;;;;;;0.00;0.00;;;;;;;;;;6223772;22;20058;-93
2022/09/05 12:17:45;;;;;;;0.10;0.10;;;;;;;;;;6223297;22;20069;-93
2022/09/05 12:20:15;;;;;;;0.00;0.00;;;;;;;;;;6223502;22;20279;-93
2022/09/05 12:22:59;;;;;;;0.00;0.00;;;;;;;;;;6224124;22;20062;-93
2022/09/05 12:25:25;;;;;;;;;;;;;;;;;;6224436;22;20020;-93
2022/09/05 12:27:57;;;;;;;0.00;0.00;;;;;;;;;;6224345;22;19922;-93
2022/09/05 12:30:26;;;;;;;0.08;0.08;;;;;;;;;;6223071;22;20016;-96
2022/09/05 12:36:04;;;;;;;0.00;0.00;;;;;;;;;;6278695;22;20016;-93
2022/09/05 12:38:54;;;;;;;0.00;0.00;;;;;;;;;;6250280;22;20030;-93
2022/09/05 12:41:28;;;;;;;0.05;0.05;;;;;;;;;;6220877;22;20128;-93
2022/09/05 12:43:54;;;;;;;;;;;;;;;;;;6225363;22;20015;-92
2022/09/05 12:46:48;;;;;;;0.00;0.00;;;;;;;;;;6225063;22;19954;-94
2022/09/05 12:49:21;;;;;;;0.10;0.10;;;;;;;;;;6212969;22;20020;-93
2022/09/05 12:51:55;;;;;;;0.10;0.10;;;;;;;;;;6225323;22;20081;-93
2022/09/05 12:54:32;;;;;;;0.08;0.08;;;;;;;;;;6225407;22;20358;-93
2022/09/05 12:56:58;;;;;;;0.08;0.08;;;;;;;;;;6225169;22;20043;-93
2022/09/05 12:59:26;;;;;;;0.00;0.00;;;;;;;;;;6224811;22;20065;-94
2022/09/05 13:02:02;;;;;;;0.00;0.00;;;;;;;;;;6224914;22;20085;-93
2022/09/05 13:04:31;;;;;;;0.10;0.10;;;;;;;;;;6224990;22;20027;-94
2022/09/05 13:06:59;;;;;;;0.00;0.00;;;;;;;;;;6224379;22;20107;-93
2022/09/05 13:09:34;;;;;;;0.00;0.00;;;;;;;;;;6224643;22;20061;-93
2022/09/05 13:12:03;;;;;;;;;;;;;;;;;;6225489;22;20012;-93
2022/09/05 13:14:30;;;;;;;0.10;0.10;;;;;;;;;;6225014;22;19986;-92
2022/09/05 13:16:58;;;;;;;0.00;0.00;;;;;;;;;;6224898;22;20022;-93
2022/09/05 13:19:29;;;;;;;0.00;0.00;;;;;;;;;;6224783;22;20016;-93
2022/09/05 13:21:56;;;;;;;0.10;0.10;;;;;;;;;;6225177;22;20508;-91
2022/09/05 13:24:33;;;;;;;0.00;0.00;;;;;;;;;;6224985;22;20020;-94
2022/09/05 13:27:15;;;;;;;0.00;0.00;;;;;;;;;;6224800;22;20102;-94
2022/09/05 13:29:52;;;;;;;0.00;0.00;;;;;;;;;;6224455;22;20017;-92
2022/09/05 13:32:31;;;;;;;0.00;0.00;;;;;;;;;;6224850;22;20015;-93
2022/09/05 13:35:09;;;;;;;0.00;0.00;;;;;;;;;;6225031;22;20691;-94
2022/09/05 13:37:43;;;;;;;0.00;0.00;;;;;;;;;;6224977;22;20020;-93
2022/09/05 13:40:09;;;;;;;;;;;;;;;;;;6225018;22;20016;-92
2022/09/05 13:42:40;;;;;;;0.08;0.08;;;;;;;;;;6224605;22;19918;-93
2022/09/05 13:45:08;;;;;;;0.00;0.00;;;;;;;;;;6250191;22;20058;-94
2022/09/05 13:47:37;;;;;;;0.00;0.00;;;;;;;;;;6224759;22;20023;-93
2022/09/05 13:50:19;;;;;;;0.10;0.10;;;;;;;;;;6224072;22;20012;-93
2022/09/05 13:52:48;;;;;;;0.00;0.00;;;;;;;;;;6224231;22;20019;-92
2022/09/05 13:55:20;;;;;;;0.00;0.00;;;;;;;;;;6225028;22;20015;-92
2022/09/05 13:57:53;;;;;;;0.10;0.10;;;;;;;;;;6223971;22;20020;-93
2022/09/05 14:00:27;;;;;;;0.00;0.00;;;;;;;;;;6223495;22;20023;-93
2022/09/05 14:03:11;;;;;;;0.00;0.00;;;;;;;;;;6224612;22;20069;-92
2022/09/05 14:06:07;;;;;;;0.00;0.00;;;;;;;;;;6224341;22;20028;-92
2022/09/05 14:08:33;;;;;;;0.00;0.00;;;;;;;;;;6217390;22;20118;-93
2022/09/05 14:11:02;;;;;;;0.00;0.00;;;;;;;;;;6223935;22;20016;-94
2022/09/05 14:13:31;;;;;;;0.10;0.10;;;;;;;;;;6224498;22;20349;-93
2022/09/05 14:15:59;;;;;;;0.00;0.00;;;;;;;;;;6224336;22;20062;-94
2022/09/05 14:21:14;;;;;;;0.10;0.10;;;;;;;;;;6224913;22;20011;-94
2022/09/05 14:21:18;;;;;;;0.20;0.20;;;;;;;;;;6249688;22;20341;-94
2022/09/05 14:23:44;;;;;;;0.00;0.00;;;;;;;;;;6224467;22;20421;-93
2022/09/05 14:26:14;;;;;;;0.05;0.05;;;;;;;;;;6224573;22;20011;-94
2022/09/05 14:28:44;;;;;;;0.00;0.00;;;;;;;;;;6224035;22;20015;-92
2022/09/05 14:31:12;;;;;;;0.00;0.00;;;;;;;;;;6224491;22;20427;-94
2022/09/05 14:34:08;;;;;;;0.10;0.10;;;;;;;;;;6224363;22;20015;-93
2022/09/05 14:36:46;;;;;;;0.00;0.00;;;;;;;;;;6195557;22;20017;-94
2022/09/05 14:39:32;;;;;;;0.10;0.10;;;;;;;;;;6224048;22;20038;-94
2022/09/05 14:42:10;;;;;;;0.00;0.00;;;;;;;;;;6208895;22;20012;-94
2022/09/05 14:44:55;;;;;;;0.00;0.00;;;;;;;;;;6224461;22;20015;-94
2022/09/05 14:47:45;;;;;;;0.00;0.00;;;;;;;;;;6225440;22;20070;-94
2022/09/05 14:50:26;;;;;;;0.00;0.00;;;;;;;;;;6249202;22;20012;-93
2022/09/05 14:53:11;;;;;;;0.00;0.00;;;;;;;;;;6224708;22;20015;-93
2022/09/05 14:55:37;;;;;;;0.00;0.00;;;;;;;;;;6224195;22;20136;-93
2022/09/05 14:58:03;;;;;;;0.00;0.00;;;;;;;;;;6224698;22;20012;-94
2022/09/05 15:00:36;;;;;;;0.00;0.00;;;;;;;;;;6223899;22;20024;-94
2022/09/05 15:03:03;;;;;;;0.00;0.00;;;;;;;;;;6227710;22;20027;-95
2022/09/05 15:05:29;;;;;;;0.00;0.00;;;;;;;;;;6224771;22;20020;-91
2022/09/05 15:08:03;;;;;;;0.00;0.00;;;;;;;;;;6224051;22;20020;-95
2022/09/05 15:10:33;;;;;;;0.05;0.05;;;;;;;;;;6247689;22;20016;-93
2022/09/05 15:13:19;;;;;;;0.00;0.00;;;;;;;;;;6223865;22;20018;-94
2022/09/05 15:15:57;;;;;;;0.05;0.05;;;;;;;;;;6224711;22;20026;-95
2022/09/05 15:18:23;;;;;;;0.00;0.00;;;;;;;;;;6249650;22;20453;-94
2022/09/05 15:21:14;;;;;;;0.00;0.00;;;;;;;;;;6224007;22;20016;-92
2022/09/05 15:23:41;;;;;;;0.10;0.10;;;;;;;;;;6224471;22;20055;-93
2022/09/05 15:26:17;;;;;;;0.00;0.00;;;;;;;;;;6224562;22;20015;-93
2022/09/05 15:28:44;;;;;;;0.00;0.00;;;;;;;;;;6224030;22;20115;-94
2022/09/05 15:31:20;;;;;;;0.00;0.00;;;;;;;;;;6223676;22;20016;-94
2022/09/05 15:33:47;;;;;;;0.08;0.08;;;;;;;;;;6224340;22;20054;-93
2022/09/05 15:36:29;;;;;;;0.00;0.00;;;;;;;;;;6224358;22;20016;-93
2022/09/05 15:38:58;;;;;;;0.00;0.00;;;;;;;;;;6223983;22;20516;-93